sensor_id;sensor_type;location;lat;lon;timestamp;P1;durP1;ratioP1;P2;durP2;ratioP2
24635;SDS011;12772;49.794;10.024;2023-01-28T00:03:34;3.05;;;2.78;;
24635;SDS011;12772;49.794;10.024;2023-01-28T00:07:37;3.15;;;2.95;;
24635;SDS011;12772;49.794;10.024;2023-01-28T00:11:39;3.00;;;2.80;;
24635;SDS011;12772;49.794;10.024;2023-01-28T00:15:41;2.88;;;2.60;;
24635;SDS011;12772;49.794;10.024;2023-01-28T00:19:43;2.67;;;2.47;;
24635;SDS011;12772;49.794;10.024;2023-01-28T00:23:47;2.60;;;2.40;;
24635;SDS011;12772;49.794;10.024;2023-01-28T00:27:53;3.53;;;3.22;;
24635;SDS011;12772;49.794;10.024;2023-01-28T00:31:55;3.55;;;3.25;;
24635;SDS011;12772;49.794;10.024;2023-01-28T00:35:58;3.85;;;3.22;;
24635;SDS011;12772;49.794;10.024;2023-01-28T00:40:00;3.40;;;3.13;;
24635;SDS011;12772;49.794;10.024;2023-01-28T00:44:02;3.20;;;3.00;;
24635;SDS011;12772;49.794;10.024;2023-01-28T00:48:05;3.13;;;2.75;;
24635;SDS011;12772;49.794;10.024;2023-01-28T00:52:07;3.00;;;2.80;;
24635;SDS011;12772;49.794;10.024;2023-01-28T00:56:11;3.22;;;2.92;;
24635;SDS011;12772;49.794;10.024;2023-01-28T01:00:15;2.85;;;2.65;;
24635;SDS011;12772;49.794;10.024;2023-01-28T01:04:19;3.03;;;2.78;;
24635;SDS011;12772;49.794;10.024;2023-01-28T01:08:26;27.08;;;15.90;;
24635;SDS011;12772;49.794;10.024;2023-01-28T01:12:34;49.75;;;28.05;;
24635;SDS011;12772;49.794;10.024;2023-01-28T01:16:36;29.88;;;16.08;;
24635;SDS011;12772;49.794;10.024;2023-01-28T01:20:38;17.60;;;12.70;;
24635;SDS011;12772;49.794;10.024;2023-01-28T01:24:46;10.98;;;7.57;;
24635;SDS011;12772;49.794;10.024;2023-01-28T01:28:49;9.07;;;6.60;;
24635;SDS011;12772;49.794;10.024;2023-01-28T01:32:52;9.13;;;6.90;;
24635;SDS011;12772;49.794;10.024;2023-01-28T01:36:54;5.10;;;4.57;;
24635;SDS011;12772;49.794;10.024;2023-01-28T01:40:57;4.63;;;4.15;;
24635;SDS011;12772;49.794;10.024;2023-01-28T01:45:12;4.55;;;3.67;;
24635;SDS011;12772;49.794;10.024;2023-01-28T01:49:18;4.75;;;3.70;;
24635;SDS011;12772;49.794;10.024;2023-01-28T01:53:22;3.35;;;3.05;;
24635;SDS011;12772;49.794;10.024;2023-01-28T01:57:28;3.85;;;3.55;;
24635;SDS011;12772;49.794;10.024;2023-01-28T02:01:33;3.90;;;3.58;;
24635;SDS011;12772;49.794;10.024;2023-01-28T02:05:35;4.82;;;4.35;;
24635;SDS011;12772;49.794;10.024;2023-01-28T02:09:39;3.97;;;3.58;;
24635;SDS011;12772;49.794;10.024;2023-01-28T02:13:43;3.97;;;3.60;;
24635;SDS011;12772;49.794;10.024;2023-01-28T02:17:51;3.92;;;3.58;;
24635;SDS011;12772;49.794;10.024;2023-01-28T02:26:20;4.60;;;4.20;;
24635;SDS011;12772;49.794;10.024;2023-01-28T02:30:47;5.30;;;4.80;;
24635;SDS011;12772;49.794;10.024;2023-01-28T02:44:00;4.40;;;4.00;;
24635;SDS011;12772;49.794;10.024;2023-01-28T02:48:03;4.07;;;3.67;;
24635;SDS011;12772;49.794;10.024;2023-01-28T02:56:16;4.78;;;4.38;;
24635;SDS011;12772;49.794;10.024;2023-01-28T03:04:43;4.63;;;4.15;;
24635;SDS011;12772;49.794;10.024;2023-01-28T03:08:58;4.70;;;4.30;;
24635;SDS011;12772;49.794;10.024;2023-01-28T03:13:20;4.22;;;3.83;;
24635;SDS011;12772;49.794;10.024;2023-01-28T03:17:48;4.15;;;3.75;;
24635;SDS011;12772;49.794;10.024;2023-01-28T03:22:17;5.10;;;4.03;;
24635;SDS011;12772;49.794;10.024;2023-01-28T03:26:46;3.90;;;3.58;;
24635;SDS011;12772;49.794;10.024;2023-01-28T03:31:15;3.90;;;3.60;;
24635;SDS011;12772;49.794;10.024;2023-01-28T03:35:38;4.10;;;3.70;;
24635;SDS011;12772;49.794;10.024;2023-01-28T03:40:02;4.20;;;3.80;;
24635;SDS011;12772;49.794;10.024;2023-01-28T03:44:06;4.32;;;3.92;;
24635;SDS011;12772;49.794;10.024;2023-01-28T03:48:26;4.00;;;3.53;;
24635;SDS011;12772;49.794;10.024;2023-01-28T03:52:29;3.88;;;3.58;;
24635;SDS011;12772;49.794;10.024;2023-01-28T03:56:32;3.50;;;3.20;;
24635;SDS011;12772;49.794;10.024;2023-01-28T04:00:37;4.15;;;3.75;;
24635;SDS011;12772;49.794;10.024;2023-01-28T04:04:41;3.50;;;3.20;;
24635;SDS011;12772;49.794;10.024;2023-01-28T04:08:43;4.10;;;3.70;;
24635;SDS011;12772;49.794;10.024;2023-01-28T04:12:48;3.83;;;3.42;;
24635;SDS011;12772;49.794;10.024;2023-01-28T04:16:53;3.75;;;3.45;;
24635;SDS011;12772;49.794;10.024;2023-01-28T04:20:55;3.88;;;3.58;;
24635;SDS011;12772;49.794;10.024;2023-01-28T04:24:57;3.40;;;3.10;;
24635;SDS011;12772;49.794;10.024;2023-01-28T04:28:59;3.38;;;3.10;;
24635;SDS011;12772;49.794;10.024;2023-01-28T04:33:01;2.85;;;2.65;;
24635;SDS011;12772;49.794;10.024;2023-01-28T04:37:03;3.53;;;3.22;;
24635;SDS011;12772;49.794;10.024;2023-01-28T04:41:05;3.65;;;3.35;;
24635;SDS011;12772;49.794;10.024;2023-01-28T04:45:08;3.80;;;3.47;;
24635;SDS011;12772;49.794;10.024;2023-01-28T04:49:10;3.65;;;3.35;;
24635;SDS011;12772;49.794;10.024;2023-01-28T04:53:12;3.50;;;3.20;;
24635;SDS011;12772;49.794;10.024;2023-01-28T04:57:14;3.17;;;2.92;;
24635;SDS011;12772;49.794;10.024;2023-01-28T05:01:16;4.22;;;3.35;;
24635;SDS011;12772;49.794;10.024;2023-01-28T05:05:18;3.50;;;3.20;;
24635;SDS011;12772;49.794;10.024;2023-01-28T05:09:20;3.90;;;3.60;;
24635;SDS011;12772;49.794;10.024;2023-01-28T05:13:22;3.25;;;3.00;;
24635;SDS011;12772;49.794;10.024;2023-01-28T05:17:25;3.13;;;2.92;;
24635;SDS011;12772;49.794;10.024;2023-01-28T05:21:28;3.75;;;3.45;;
24635;SDS011;12772;49.794;10.024;2023-01-28T05:25:30;2.97;;;2.60;;
24635;SDS011;12772;49.794;10.024;2023-01-28T05:29:32;3.10;;;2.88;;
24635;SDS011;12772;49.794;10.024;2023-01-28T05:33:34;3.45;;;3.15;;
24635;SDS011;12772;49.794;10.024;2023-01-28T05:37:36;3.10;;;2.80;;
24635;SDS011;12772;49.794;10.024;2023-01-28T05:41:38;3.78;;;3.40;;
24635;SDS011;12772;49.794;10.024;2023-01-28T05:45:40;3.30;;;3.00;;
24635;SDS011;12772;49.794;10.024;2023-01-28T05:49:42;4.57;;;3.80;;
24635;SDS011;12772;49.794;10.024;2023-01-28T05:53:45;4.32;;;3.95;;
24635;SDS011;12772;49.794;10.024;2023-01-28T05:57:47;5.10;;;4.20;;
24635;SDS011;12772;49.794;10.024;2023-01-28T06:01:50;3.88;;;3.58;;
24635;SDS011;12772;49.794;10.024;2023-01-28T06:05:52;4.45;;;4.05;;
24635;SDS011;12772;49.794;10.024;2023-01-28T06:09:54;4.25;;;3.85;;
24635;SDS011;12772;49.794;10.024;2023-01-28T06:13:56;5.00;;;4.53;;
24635;SDS011;12772;49.794;10.024;2023-01-28T06:17:58;4.50;;;4.10;;
24635;SDS011;12772;49.794;10.024;2023-01-28T06:22:00;4.78;;;4.38;;
24635;SDS011;12772;49.794;10.024;2023-01-28T06:26:02;4.88;;;4.38;;
24635;SDS011;12772;49.794;10.024;2023-01-28T06:30:04;5.32;;;4.75;;
24635;SDS011;12772;49.794;10.024;2023-01-28T06:34:08;6.22;;;4.97;;
24635;SDS011;12772;49.794;10.024;2023-01-28T06:38:11;5.20;;;4.72;;
24635;SDS011;12772;49.794;10.024;2023-01-28T06:42:13;6.10;;;4.65;;
24635;SDS011;12772;49.794;10.024;2023-01-28T06:46:15;7.65;;;5.18;;
24635;SDS011;12772;49.794;10.024;2023-01-28T06:50:17;5.75;;;5.25;;
24635;SDS011;12772;49.794;10.024;2023-01-28T06:54:20;6.93;;;6.15;;
24635;SDS011;12772;49.794;10.024;2023-01-28T06:58:22;6.07;;;5.40;;
24635;SDS011;12772;49.794;10.024;2023-01-28T07:02:24;6.50;;;5.90;;
24635;SDS011;12772;49.794;10.024;2023-01-28T07:06:26;5.63;;;5.05;;
24635;SDS011;12772;49.794;10.024;2023-01-28T07:10:28;5.78;;;5.18;;
24635;SDS011;12772;49.794;10.024;2023-01-28T07:14:30;7.28;;;5.68;;
24635;SDS011;12772;49.794;10.024;2023-01-28T07:18:32;6.13;;;5.30;;
24635;SDS011;12772;49.794;10.024;2023-01-28T07:22:35;8.27;;;5.97;;
24635;SDS011;12772;49.794;10.024;2023-01-28T07:26:43;6.43;;;5.53;;
24635;SDS011;12772;49.794;10.024;2023-01-28T07:30:48;6.63;;;5.65;;
24635;SDS011;12772;49.794;10.024;2023-01-28T07:34:51;5.47;;;4.97;;
24635;SDS011;12772;49.794;10.024;2023-01-28T07:38:53;6.68;;;5.65;;
24635;SDS011;12772;49.794;10.024;2023-01-28T07:42:55;7.55;;;5.38;;
24635;SDS011;12772;49.794;10.024;2023-01-28T07:46:57;6.43;;;5.75;;
24635;SDS011;12772;49.794;10.024;2023-01-28T07:50:59;6.97;;;6.28;;
24635;SDS011;12772;49.794;10.024;2023-01-28T07:55:01;7.03;;;5.72;;
24635;SDS011;12772;49.794;10.024;2023-01-28T07:59:04;14.40;;;8.98;;
24635;SDS011;12772;49.794;10.024;2023-01-28T08:03:08;21.95;;;14.25;;
24635;SDS011;12772;49.794;10.024;2023-01-28T08:07:14;21.00;;;13.52;;
24635;SDS011;12772;49.794;10.024;2023-01-28T08:11:16;13.13;;;9.32;;
24635;SDS011;12772;49.794;10.024;2023-01-28T08:15:18;7.13;;;6.43;;
24635;SDS011;12772;49.794;10.024;2023-01-28T08:19:20;9.48;;;7.22;;
24635;SDS011;12772;49.794;10.024;2023-01-28T08:23:22;5.88;;;5.28;;
24635;SDS011;12772;49.794;10.024;2023-01-28T08:27:26;7.25;;;5.55;;
24635;SDS011;12772;49.794;10.024;2023-01-28T08:31:28;5.70;;;5.18;;
24635;SDS011;12772;49.794;10.024;2023-01-28T08:35:31;5.90;;;5.30;;
24635;SDS011;12772;49.794;10.024;2023-01-28T08:39:33;5.57;;;4.97;;
24635;SDS011;12772;49.794;10.024;2023-01-28T08:43:35;5.28;;;4.78;;
24635;SDS011;12772;49.794;10.024;2023-01-28T08:47:46;5.88;;;5.35;;
24635;SDS011;12772;49.794;10.024;2023-01-28T08:51:52;5.57;;;5.07;;
24635;SDS011;12772;49.794;10.024;2023-01-28T08:55:54;6.53;;;5.45;;
24635;SDS011;12772;49.794;10.024;2023-01-28T08:59:56;5.57;;;5.07;;
24635;SDS011;12772;49.794;10.024;2023-01-28T09:03:58;5.50;;;4.90;;
24635;SDS011;12772;49.794;10.024;2023-01-28T09:08:01;4.90;;;4.50;;
24635;SDS011;12772;49.794;10.024;2023-01-28T09:12:07;5.50;;;5.00;;
24635;SDS011;12772;49.794;10.024;2023-01-28T09:16:10;7.03;;;5.85;;
24635;SDS011;12772;49.794;10.024;2023-01-28T09:20:12;5.80;;;4.65;;
24635;SDS011;12772;49.794;10.024;2023-01-28T09:24:14;5.75;;;5.00;;
24635;SDS011;12772;49.794;10.024;2023-01-28T09:28:16;5.80;;;5.20;;
24635;SDS011;12772;49.794;10.024;2023-01-28T09:32:18;6.03;;;5.53;;
24635;SDS011;12772;49.794;10.024;2023-01-28T09:36:23;5.80;;;5.05;;
24635;SDS011;12772;49.794;10.024;2023-01-28T09:49:02;14.13;;;5.80;;
24635;SDS011;12772;49.794;10.024;2023-01-28T09:53:17;15.98;;;5.25;;
24635;SDS011;12772;49.794;10.024;2023-01-28T09:57:30;5.65;;;4.28;;
24635;SDS011;12772;49.794;10.024;2023-01-28T10:01:57;12.20;;;5.43;;
24635;SDS011;12772;49.794;10.024;2023-01-28T10:10:16;25.15;;;5.97;;
24635;SDS011;12772;49.794;10.024;2023-01-28T10:27:23;35.60;;;6.53;;
24635;SDS011;12772;49.794;10.024;2023-01-28T10:31:36;16.42;;;6.00;;
24635;SDS011;12772;49.794;10.024;2023-01-28T10:35:46;16.23;;;5.57;;
24635;SDS011;12772;49.794;10.024;2023-01-28T10:39:49;7.57;;;4.53;;
24635;SDS011;12772;49.794;10.024;2023-01-28T10:43:53;25.05;;;6.85;;
24635;SDS011;12772;49.794;10.024;2023-01-28T10:47:59;19.45;;;4.70;;
24635;SDS011;12772;49.794;10.024;2023-01-28T10:52:14;9.23;;;4.45;;
24635;SDS011;12772;49.794;10.024;2023-01-28T10:56:24;9.00;;;4.78;;
24635;SDS011;12772;49.794;10.024;2023-01-28T11:00:35;5.30;;;4.43;;
24635;SDS011;12772;49.794;10.024;2023-01-28T11:04:39;6.47;;;4.20;;
24635;SDS011;12772;49.794;10.024;2023-01-28T11:08:42;63.45;;;7.13;;
24635;SDS011;12772;49.794;10.024;2023-01-28T11:12:53;20.85;;;5.07;;
24635;SDS011;12772;49.794;10.024;2023-01-28T11:17:00;15.73;;;4.28;;
24635;SDS011;12772;49.794;10.024;2023-01-28T11:21:03;16.45;;;4.68;;
24635;SDS011;12772;49.794;10.024;2023-01-28T11:29:26;9.05;;;3.85;;
24635;SDS011;12772;49.794;10.024;2023-01-28T11:33:37;9.43;;;3.92;;
24635;SDS011;12772;49.794;10.024;2023-01-28T11:37:46;6.75;;;4.10;;
24635;SDS011;12772;49.794;10.024;2023-01-28T11:41:49;12.00;;;8.18;;
24635;SDS011;12772;49.794;10.024;2023-01-28T11:58:49;7.05;;;3.83;;
24635;SDS011;12772;49.794;10.024;2023-01-28T12:07:49;10.85;;;4.03;;
24635;SDS011;12772;49.794;10.024;2023-01-28T12:12:17;7.30;;;3.95;;
24635;SDS011;12772;49.794;10.024;2023-01-28T12:29:25;4.25;;;3.88;;
24635;SDS011;12772;49.794;10.024;2023-01-28T12:42:36;4.30;;;3.90;;
24635;SDS011;12772;49.794;10.024;2023-01-28T12:46:44;4.05;;;3.70;;
24635;SDS011;12772;49.794;10.024;2023-01-28T12:50:52;4.80;;;4.43;;
24635;SDS011;12772;49.794;10.024;2023-01-28T12:55:14;8.07;;;3.95;;
24635;SDS011;12772;49.794;10.024;2023-01-28T13:04:15;3.83;;;3.30;;
24635;SDS011;12772;49.794;10.024;2023-01-28T13:08:21;5.47;;;4.43;;
24635;SDS011;12772;49.794;10.024;2023-01-28T13:12:25;3.60;;;3.25;;
24635;SDS011;12772;49.794;10.024;2023-01-28T13:16:27;3.67;;;3.38;;
24635;SDS011;12772;49.794;10.024;2023-01-28T13:24:48;3.63;;;3.30;;
24635;SDS011;12772;49.794;10.024;2023-01-28T13:28:51;4.25;;;3.85;;
24635;SDS011;12772;49.794;10.024;2023-01-28T13:33:01;4.63;;;4.22;;
24635;SDS011;12772;49.794;10.024;2023-01-28T13:37:27;5.83;;;4.83;;
24635;SDS011;12772;49.794;10.024;2023-01-28T13:46:09;8.30;;;6.13;;
24635;SDS011;12772;49.794;10.024;2023-01-28T13:50:36;10.10;;;6.60;;
24635;SDS011;12772;49.794;10.024;2023-01-28T13:54:43;9.25;;;5.95;;
24635;SDS011;12772;49.794;10.024;2023-01-28T14:12:11;3.72;;;3.40;;
24635;SDS011;12772;49.794;10.024;2023-01-28T14:20:40;3.72;;;3.00;;
24635;SDS011;12772;49.794;10.024;2023-01-28T14:24:48;3.00;;;2.80;;
24635;SDS011;12772;49.794;10.024;2023-01-28T14:32:56;3.88;;;3.33;;
24635;SDS011;12772;49.794;10.024;2023-01-28T14:37:00;4.45;;;3.85;;
24635;SDS011;12772;49.794;10.024;2023-01-28T14:41:08;3.75;;;3.40;;
24635;SDS011;12772;49.794;10.024;2023-01-28T14:58:15;4.43;;;4.03;;
24635;SDS011;12772;49.794;10.024;2023-01-28T15:02:22;3.85;;;3.50;;
24635;SDS011;12772;49.794;10.024;2023-01-28T15:06:29;4.80;;;4.40;;
24635;SDS011;12772;49.794;10.024;2023-01-28T15:10:35;3.08;;;2.78;;
24635;SDS011;12772;49.794;10.024;2023-01-28T15:14:39;3.70;;;2.60;;
24635;SDS011;12772;49.794;10.024;2023-01-28T15:18:44;2.92;;;2.33;;
24635;SDS011;12772;49.794;10.024;2023-01-28T15:22:47;2.50;;;2.20;;
24635;SDS011;12772;49.794;10.024;2023-01-28T15:26:50;2.67;;;2.50;;
24635;SDS011;12772;49.794;10.024;2023-01-28T15:30:53;1.83;;;1.70;;
24635;SDS011;12772;49.794;10.024;2023-01-28T15:34:55;2.60;;;2.40;;
24635;SDS011;12772;49.794;10.024;2023-01-28T15:38:59;4.68;;;2.85;;
24635;SDS011;12772;49.794;10.024;2023-01-28T15:43:01;3.47;;;2.72;;
24635;SDS011;12772;49.794;10.024;2023-01-28T15:47:13;3.65;;;3.05;;
24635;SDS011;12772;49.794;10.024;2023-01-28T15:51:26;2.78;;;2.53;;
24635;SDS011;12772;49.794;10.024;2023-01-28T15:55:35;2.88;;;2.67;;
24635;SDS011;12772;49.794;10.024;2023-01-28T15:59:41;8.15;;;7.45;;
24635;SDS011;12772;49.794;10.024;2023-01-28T16:03:58;6.55;;;5.93;;
24635;SDS011;12772;49.794;10.024;2023-01-28T16:08:15;8.68;;;6.20;;
24635;SDS011;12772;49.794;10.024;2023-01-28T16:12:46;5.32;;;4.82;;
24635;SDS011;12772;49.794;10.024;2023-01-28T16:16:52;6.95;;;4.60;;
24635;SDS011;12772;49.794;10.024;2023-01-28T16:20:56;10.23;;;9.23;;
24635;SDS011;12772;49.794;10.024;2023-01-28T16:25:00;4.97;;;4.40;;
24635;SDS011;12772;49.794;10.024;2023-01-28T16:29:15;6.68;;;5.75;;
24635;SDS011;12772;49.794;10.024;2023-01-28T16:33:18;6.32;;;5.05;;
24635;SDS011;12772;49.794;10.024;2023-01-28T16:37:21;17.20;;;10.65;;
24635;SDS011;12772;49.794;10.024;2023-01-28T16:41:24;53.38;;;25.80;;
24635;SDS011;12772;49.794;10.024;2023-01-28T16:45:29;18.27;;;11.05;;
24635;SDS011;12772;49.794;10.024;2023-01-28T16:49:31;12.00;;;7.18;;
24635;SDS011;12772;49.794;10.024;2023-01-28T16:53:33;5.97;;;4.60;;
24635;SDS011;12772;49.794;10.024;2023-01-28T16:57:35;7.93;;;4.35;;
24635;SDS011;12772;49.794;10.024;2023-01-28T17:01:37;5.15;;;3.65;;
24635;SDS011;12772;49.794;10.024;2023-01-28T17:05:39;4.90;;;4.00;;
24635;SDS011;12772;49.794;10.024;2023-01-28T17:09:41;3.35;;;3.08;;
24635;SDS011;12772;49.794;10.024;2023-01-28T17:13:43;4.85;;;3.30;;
24635;SDS011;12772;49.794;10.024;2023-01-28T17:17:46;8.38;;;5.30;;
24635;SDS011;12772;49.794;10.024;2023-01-28T17:21:50;14.98;;;10.00;;
24635;SDS011;12772;49.794;10.024;2023-01-28T17:25:52;23.13;;;19.80;;
24635;SDS011;12772;49.794;10.024;2023-01-28T17:29:54;18.75;;;16.85;;
24635;SDS011;12772;49.794;10.024;2023-01-28T17:33:56;15.10;;;13.73;;
24635;SDS011;12772;49.794;10.024;2023-01-28T17:38:00;9.93;;;9.00;;
24635;SDS011;12772;49.794;10.024;2023-01-28T17:42:03;4.82;;;4.30;;
24635;SDS011;12772;49.794;10.024;2023-01-28T17:46:12;4.90;;;4.40;;
24635;SDS011;12772;49.794;10.024;2023-01-28T17:50:15;4.55;;;4.15;;
24635;SDS011;12772;49.794;10.024;2023-01-28T17:54:17;3.97;;;3.63;;
24635;SDS011;12772;49.794;10.024;2023-01-28T17:58:19;3.38;;;2.92;;
24635;SDS011;12772;49.794;10.024;2023-01-28T18:02:21;3.72;;;3.33;;
24635;SDS011;12772;49.794;10.024;2023-01-28T18:06:23;4.60;;;4.20;;
24635;SDS011;12772;49.794;10.024;2023-01-28T18:10:25;4.30;;;3.55;;
24635;SDS011;12772;49.794;10.024;2023-01-28T18:14:27;4.07;;;3.63;;
24635;SDS011;12772;49.794;10.024;2023-01-28T18:18:30;5.20;;;4.10;;
24635;SDS011;12772;49.794;10.024;2023-01-28T18:22:32;3.88;;;3.53;;
24635;SDS011;12772;49.794;10.024;2023-01-28T18:26:34;4.45;;;3.42;;
24635;SDS011;12772;49.794;10.024;2023-01-28T18:30:36;4.78;;;4.32;;
24635;SDS011;12772;49.794;10.024;2023-01-28T18:34:38;5.00;;;4.00;;
24635;SDS011;12772;49.794;10.024;2023-01-28T18:38:40;4.53;;;4.13;;
24635;SDS011;12772;49.794;10.024;2023-01-28T18:42:42;6.78;;;4.07;;
24635;SDS011;12772;49.794;10.024;2023-01-28T18:46:44;5.20;;;4.70;;
24635;SDS011;12772;49.794;10.024;2023-01-28T18:50:53;11.27;;;8.75;;
24635;SDS011;12772;49.794;10.024;2023-01-28T18:54:57;8.32;;;7.13;;
24635;SDS011;12772;49.794;10.024;2023-01-28T18:59:00;8.25;;;6.60;;
24635;SDS011;12772;49.794;10.024;2023-01-28T19:03:04;7.00;;;6.40;;
24635;SDS011;12772;49.794;10.024;2023-01-28T19:07:06;6.03;;;4.30;;
24635;SDS011;12772;49.794;10.024;2023-01-28T19:11:09;4.47;;;4.07;;
24635;SDS011;12772;49.794;10.024;2023-01-28T19:15:11;3.60;;;3.30;;
24635;SDS011;12772;49.794;10.024;2023-01-28T19:19:13;3.90;;;3.60;;
24635;SDS011;12772;49.794;10.024;2023-01-28T19:23:15;4.72;;;3.97;;
24635;SDS011;12772;49.794;10.024;2023-01-28T19:27:17;5.15;;;4.65;;
24635;SDS011;12772;49.794;10.024;2023-01-28T19:31:20;4.63;;;4.20;;
24635;SDS011;12772;49.794;10.024;2023-01-28T19:35:23;4.75;;;4.18;;
24635;SDS011;12772;49.794;10.024;2023-01-28T19:39:25;4.50;;;4.03;;
24635;SDS011;12772;49.794;10.024;2023-01-28T19:43:27;5.13;;;4.10;;
24635;SDS011;12772;49.794;10.024;2023-01-28T19:47:29;4.47;;;3.72;;
24635;SDS011;12772;49.794;10.024;2023-01-28T19:51:31;4.47;;;4.07;;
24635;SDS011;12772;49.794;10.024;2023-01-28T19:55:36;3.80;;;3.47;;
24635;SDS011;12772;49.794;10.024;2023-01-28T19:59:38;5.20;;;3.85;;
24635;SDS011;12772;49.794;10.024;2023-01-28T20:03:41;3.60;;;3.30;;
24635;SDS011;12772;49.794;10.024;2023-01-28T20:07:43;4.28;;;3.53;;
24635;SDS011;12772;49.794;10.024;2023-01-28T20:11:45;9.37;;;7.87;;
24635;SDS011;12772;49.794;10.024;2023-01-28T20:15:47;5.47;;;4.93;;
24635;SDS011;12772;49.794;10.024;2023-01-28T20:19:49;5.32;;;4.47;;
24635;SDS011;12772;49.794;10.024;2023-01-28T20:23:52;4.72;;;4.32;;
24635;SDS011;12772;49.794;10.024;2023-01-28T20:27:55;5.43;;;4.07;;
24635;SDS011;12772;49.794;10.024;2023-01-28T20:31:57;3.70;;;3.40;;
24635;SDS011;12772;49.794;10.024;2023-01-28T20:36:00;4.65;;;3.88;;
24635;SDS011;12772;49.794;10.024;2023-01-28T20:40:06;4.20;;;3.90;;
24635;SDS011;12772;49.794;10.024;2023-01-28T20:44:09;4.27;;;3.87;;
24635;SDS011;12772;49.794;10.024;2023-01-28T20:48:11;4.83;;;4.43;;
24635;SDS011;12772;49.794;10.024;2023-01-28T20:52:13;4.15;;;3.85;;
24635;SDS011;12772;49.794;10.024;2023-01-28T20:56:16;3.70;;;3.40;;
24635;SDS011;12772;49.794;10.024;2023-01-28T21:00:20;4.03;;;3.70;;
24635;SDS011;12772;49.794;10.024;2023-01-28T21:04:22;4.80;;;4.15;;
24635;SDS011;12772;49.794;10.024;2023-01-28T21:08:24;4.30;;;3.90;;
24635;SDS011;12772;49.794;10.024;2023-01-28T21:12:26;4.82;;;3.70;;
24635;SDS011;12772;49.794;10.024;2023-01-28T21:16:29;3.80;;;3.50;;
24635;SDS011;12772;49.794;10.024;2023-01-28T21:20:31;3.70;;;3.40;;
24635;SDS011;12772;49.794;10.024;2023-01-28T21:24:34;5.43;;;4.88;;
24635;SDS011;12772;49.794;10.024;2023-01-28T21:28:36;8.45;;;5.68;;
24635;SDS011;12772;49.794;10.024;2023-01-28T21:32:38;6.05;;;4.75;;
24635;SDS011;12772;49.794;10.024;2023-01-28T21:36:40;6.03;;;5.40;;
24635;SDS011;12772;49.794;10.024;2023-01-28T21:40:42;5.57;;;4.97;;
24635;SDS011;12772;49.794;10.024;2023-01-28T21:44:44;7.57;;;6.00;;
24635;SDS011;12772;49.794;10.024;2023-01-28T21:48:47;6.25;;;5.30;;
24635;SDS011;12772;49.794;10.024;2023-01-28T21:52:50;5.80;;;5.30;;
24635;SDS011;12772;49.794;10.024;2023-01-28T21:56:52;5.40;;;4.90;;
24635;SDS011;12772;49.794;10.024;2023-01-28T22:00:54;7.60;;;5.95;;
24635;SDS011;12772;49.794;10.024;2023-01-28T22:04:56;9.00;;;6.93;;
24635;SDS011;12772;49.794;10.024;2023-01-28T22:08:58;9.03;;;6.90;;
24635;SDS011;12772;49.794;10.024;2023-01-28T22:13:00;6.97;;;6.00;;
24635;SDS011;12772;49.794;10.024;2023-01-28T22:17:03;7.88;;;6.32;;
24635;SDS011;12772;49.794;10.024;2023-01-28T22:21:10;10.90;;;7.22;;
24635;SDS011;12772;49.794;10.024;2023-01-28T22:25:12;8.00;;;5.70;;
24635;SDS011;12772;49.794;10.024;2023-01-28T22:29:15;10.60;;;7.15;;
24635;SDS011;12772;49.794;10.024;2023-01-28T22:33:18;8.65;;;6.53;;
24635;SDS011;12772;49.794;10.024;2023-01-28T22:37:21;8.07;;;6.80;;
24635;SDS011;12772;49.794;10.024;2023-01-28T22:41:23;9.18;;;6.85;;
24635;SDS011;12772;49.794;10.024;2023-01-28T22:45:25;5.65;;;5.07;;
24635;SDS011;12772;49.794;10.024;2023-01-28T22:49:27;6.27;;;5.67;;
24635;SDS011;12772;49.794;10.024;2023-01-28T22:53:29;5.90;;;5.30;;
24635;SDS011;12772;49.794;10.024;2023-01-28T22:57:32;8.30;;;4.97;;
24635;SDS011;12772;49.794;10.024;2023-01-28T23:01:34;5.22;;;4.72;;
24635;SDS011;12772;49.794;10.024;2023-01-28T23:05:36;5.25;;;4.72;;
24635;SDS011;12772;49.794;10.024;2023-01-28T23:09:39;5.10;;;4.70;;
24635;SDS011;12772;49.794;10.024;2023-01-28T23:13:41;4.75;;;4.35;;
24635;SDS011;12772;49.794;10.024;2023-01-28T23:18:02;5.03;;;4.45;;
24635;SDS011;12772;49.794;10.024;2023-01-28T23:22:25;5.00;;;4.60;;
24635;SDS011;12772;49.794;10.024;2023-01-28T23:26:59;6.30;;;4.10;;
24635;SDS011;12772;49.794;10.024;2023-01-28T23:31:03;5.32;;;4.40;;
24635;SDS011;12772;49.794;10.024;2023-01-28T23:35:08;5.45;;;4.90;;
24635;SDS011;12772;49.794;10.024;2023-01-28T23:39:11;6.70;;;5.13;;
24635;SDS011;12772;49.794;10.024;2023-01-28T23:43:13;5.03;;;4.43;;
24635;SDS011;12772;49.794;10.024;2023-01-28T23:47:15;5.45;;;5.03;;
24635;SDS011;12772;49.794;10.024;2023-01-28T23:51:18;6.83;;;5.00;;
24635;SDS011;12772;49.794;10.024;2023-01-28T23:55:20;5.45;;;4.95;;
24635;SDS011;12772;49.794;10.024;2023-01-28T23:59:22;5.97;;;4.70;;
